Pagrindinis puslapis
METAR-TAF:

METAR-TAF

Oro uostai :

Salak

Marua, Kamerūnas

platuma: 10-27N, ilguma: 014-15E, Aukštis: 423 m

METAR: trūkstamas

Laikas: 04:56 (03:56 UTC)

Prognozė

Ataskaita buvo paskelbta 22 valandos ir 56 minutes, ne 05:00 UTC
Prognozė galioja nuo 21 metu 06 UTC su 21 metu 18 UTC
Vėjas 6 kt iš Šiaurės Rytų
Matomumas 10 km arba daugiau
nėra debesų žemiau 1500 m ir nėra kamuolinių lietaus debesų

TAF: FKKL 210500Z 2106/2118 05006KT CAVOK

Orai ataskaitas ir orų prognozės (METAR, TAF).

turimą stotys yra geltonos ir raudonos taškus žemėlapyje.

Perkelti pele per norėdami pamatyti stoties vardą.

Tada spustelėkite, norėdami matyti oro stebėjimo ir prognozės.

Norėdami pakeisti žemėlapį: spustelėkite ant žalios mygtukų su juodo kryžiaus žemyn,; žalią mygtuką su brūkšneliu, jei norite nutolinti; arba žalių rodyklių gretimoms žemėlapius.


METAR-TAF: